sensor_id;sensor_type;location;lat;lon;timestamp;temperature;humidity
75615;DHT22;64199;48.578;-4.520;2023-10-19T00:01:15;20.40;70.10
75615;DHT22;64199;48.578;-4.520;2023-10-19T00:03:41;20.30;70.10
75615;DHT22;64199;48.578;-4.520;2023-10-19T00:06:07;20.40;70.20
75615;DHT22;64199;48.578;-4.520;2023-10-19T00:08:32;20.40;70.20
75615;DHT22;64199;48.578;-4.520;2023-10-19T00:11:07;20.30;70.20
75615;DHT22;64199;48.578;-4.520;2023-10-19T00:13:37;20.40;70.30
75615;DHT22;64199;48.578;-4.520;2023-10-19T00:16:08;20.40;70.30
75615;DHT22;64199;48.578;-4.520;2023-10-19T00:18:42;20.40;70.30
75615;DHT22;64199;48.578;-4.520;2023-10-19T00:21:13;20.40;70.30
75615;DHT22;64199;48.578;-4.520;2023-10-19T00:23:55;20.40;70.30
75615;DHT22;64199;48.578;-4.520;2023-10-19T00:26:30;20.40;70.30
75615;DHT22;64199;48.578;-4.520;2023-10-19T00:28:56;20.40;70.40
75615;DHT22;64199;48.578;-4.520;2023-10-19T00:31:22;20.40;70.40
75615;DHT22;64199;48.578;-4.520;2023-10-19T00:33:48;20.40;70.40
75615;DHT22;64199;48.578;-4.520;2023-10-19T00:36:18;20.40;70.40
75615;DHT22;64199;48.578;-4.520;2023-10-19T00:38:48;20.40;70.40
75615;DHT22;64199;48.578;-4.520;2023-10-19T00:41:25;20.40;70.40
75615;DHT22;64199;48.578;-4.520;2023-10-19T00:43:58;20.40;70.40
75615;DHT22;64199;48.578;-4.520;2023-10-19T00:46:36;20.40;70.40
75615;DHT22;64199;48.578;-4.520;2023-10-19T00:49:07;20.40;70.40
75615;DHT22;64199;48.578;-4.520;2023-10-19T00:51:36;20.40;69.70
75615;DHT22;64199;48.578;-4.520;2023-10-19T00:54:06;20.40;70.40
75615;DHT22;64199;48.578;-4.520;2023-10-19T00:56:36;20.40;69.70
75615;DHT22;64199;48.578;-4.520;2023-10-19T00:59:02;20.40;69.80
75615;DHT22;64199;48.578;-4.520;2023-10-19T01:01:44;20.40;69.80
75615;DHT22;64199;48.578;-4.520;2023-10-19T01:04:13;20.40;70.50
75615;DHT22;64199;48.578;-4.520;2023-10-19T01:06:46;20.40;70.40
75615;DHT22;64199;48.578;-4.520;2023-10-19T01:09:28;20.40;70.40
75615;DHT22;64199;48.578;-4.520;2023-10-19T01:12:00;20.40;70.30
75615;DHT22;64199;48.578;-4.520;2023-10-19T01:14:28;20.50;70.20
75615;DHT22;64199;48.578;-4.520;2023-10-19T01:16:55;20.50;70.10
75615;DHT22;64199;48.578;-4.520;2023-10-19T01:19:24;20.50;70.10
75615;DHT22;64199;48.578;-4.520;2023-10-19T01:21:52;20.50;70.10
75615;DHT22;64199;48.578;-4.520;2023-10-19T01:24:23;20.40;69.30
75615;DHT22;64199;48.578;-4.520;2023-10-19T01:27:07;20.50;70.00
75615;DHT22;64199;48.578;-4.520;2023-10-19T01:29:36;20.50;70.00
75615;DHT22;64199;48.578;-4.520;2023-10-19T01:32:04;20.50;70.00
75615;DHT22;64199;48.578;-4.520;2023-10-19T01:34:34;20.50;70.00
75615;DHT22;64199;48.578;-4.520;2023-10-19T01:37:00;20.50;70.00
75615;DHT22;64199;48.578;-4.520;2023-10-19T01:39:30;20.50;70.00
75615;DHT22;64199;48.578;-4.520;2023-10-19T01:41:56;20.40;69.10
75615;DHT22;64199;48.578;-4.520;2023-10-19T01:44:22;20.50;69.80
75615;DHT22;64199;48.578;-4.520;2023-10-19T01:46:50;20.50;69.80
75615;DHT22;64199;48.578;-4.520;2023-10-19T01:49:16;20.50;69.10
75615;DHT22;64199;48.578;-4.520;2023-10-19T01:51:51;20.50;69.80
75615;DHT22;64199;48.578;-4.520;2023-10-19T01:54:19;20.50;69.90
75615;DHT22;64199;48.578;-4.520;2023-10-19T01:56:55;20.50;70.00
75615;DHT22;64199;48.578;-4.520;2023-10-19T01:59:25;20.50;69.90
75615;DHT22;64199;48.578;-4.520;2023-10-19T02:01:56;20.50;69.80
75615;DHT22;64199;48.578;-4.520;2023-10-19T02:04:22;20.40;69.10
75615;DHT22;64199;48.578;-4.520;2023-10-19T02:06:49;20.40;68.90
75615;DHT22;64199;48.578;-4.520;2023-10-19T02:09:17;20.50;69.60
75615;DHT22;64199;48.578;-4.520;2023-10-19T02:11:43;20.40;69.10
75615;DHT22;64199;48.578;-4.520;2023-10-19T02:14:11;20.50;69.90
75615;DHT22;64199;48.578;-4.520;2023-10-19T02:16:47;20.50;70.00
75615;DHT22;64199;48.578;-4.520;2023-10-19T02:19:13;20.40;69.90
75615;DHT22;64199;48.578;-4.520;2023-10-19T02:21:39;20.40;69.80
75615;DHT22;64199;48.578;-4.520;2023-10-19T02:24:09;20.40;69.80
75615;DHT22;64199;48.578;-4.520;2023-10-19T02:26:35;20.50;69.80
75615;DHT22;64199;48.578;-4.520;2023-10-19T02:29:03;20.40;69.80
75615;DHT22;64199;48.578;-4.520;2023-10-19T02:31:39;20.40;69.80
75615;DHT22;64199;48.578;-4.520;2023-10-19T02:34:10;20.40;69.80
75615;DHT22;64199;48.578;-4.520;2023-10-19T02:36:37;20.40;69.80
75615;DHT22;64199;48.578;-4.520;2023-10-19T02:39:07;20.40;69.90
75615;DHT22;64199;48.578;-4.520;2023-10-19T02:41:33;20.40;69.90
75615;DHT22;64199;48.578;-4.520;2023-10-19T02:44:01;20.40;70.00
75615;DHT22;64199;48.578;-4.520;2023-10-19T02:46:30;20.40;70.00
75615;DHT22;64199;48.578;-4.520;2023-10-19T02:49:00;20.40;70.10
75615;DHT22;64199;48.578;-4.520;2023-10-19T02:51:26;20.40;70.10
75615;DHT22;64199;48.578;-4.520;2023-10-19T02:53:51;20.40;70.20
75615;DHT22;64199;48.578;-4.520;2023-10-19T02:56:17;20.40;70.20
75615;DHT22;64199;48.578;-4.520;2023-10-19T02:58:45;20.40;70.20
75615;DHT22;64199;48.578;-4.520;2023-10-19T03:01:17;20.40;70.30
75615;DHT22;64199;48.578;-4.520;2023-10-19T03:03:55;20.40;70.40
75615;DHT22;64199;48.578;-4.520;2023-10-19T03:06:25;20.40;70.50
75615;DHT22;64199;48.578;-4.520;2023-10-19T03:08:51;20.30;70.40
75615;DHT22;64199;48.578;-4.520;2023-10-19T03:11:37;20.40;70.60
75615;DHT22;64199;48.578;-4.520;2023-10-19T03:14:03;20.30;70.60
75615;DHT22;64199;48.578;-4.520;2023-10-19T03:16:30;20.40;70.70
75615;DHT22;64199;48.578;-4.520;2023-10-19T03:18:56;20.40;70.70
75615;DHT22;64199;48.578;-4.520;2023-10-19T03:21:22;20.40;70.80
75615;DHT22;64199;48.578;-4.520;2023-10-19T03:23:58;20.40;71.60
75615;DHT22;64199;48.578;-4.520;2023-10-19T03:26:27;20.40;70.80
75615;DHT22;64199;48.578;-4.520;2023-10-19T03:28:56;20.30;70.80
75615;DHT22;64199;48.578;-4.520;2023-10-19T03:31:22;20.30;70.80
75615;DHT22;64199;48.578;-4.520;2023-10-19T03:33:49;20.40;70.90
75615;DHT22;64199;48.578;-4.520;2023-10-19T03:36:22;20.30;70.80
75615;DHT22;64199;48.578;-4.520;2023-10-19T03:38:49;20.30;70.80
75615;DHT22;64199;48.578;-4.520;2023-10-19T03:41:19;20.30;70.80
75615;DHT22;64199;48.578;-4.520;2023-10-19T03:43:53;20.30;70.80
75615;DHT22;64199;48.578;-4.520;2023-10-19T03:46:20;20.30;70.90
75615;DHT22;64199;48.578;-4.520;2023-10-19T03:48:59;20.30;70.80
75615;DHT22;64199;48.578;-4.520;2023-10-19T03:51:29;20.30;70.90
75615;DHT22;64199;48.578;-4.520;2023-10-19T03:54:05;20.30;70.90
75615;DHT22;64199;48.578;-4.520;2023-10-19T03:56:48;20.30;70.90
75615;DHT22;64199;48.578;-4.520;2023-10-19T03:59:13;20.30;70.90
75615;DHT22;64199;48.578;-4.520;2023-10-19T04:01:39;20.30;71.00
75615;DHT22;64199;48.578;-4.520;2023-10-19T04:04:05;20.30;71.00
75615;DHT22;64199;48.578;-4.520;2023-10-19T04:06:30;20.30;71.00
75615;DHT22;64199;48.578;-4.520;2023-10-19T04:08:56;20.30;71.00
75615;DHT22;64199;48.578;-4.520;2023-10-19T04:11:22;20.30;71.00
75615;DHT22;64199;48.578;-4.520;2023-10-19T04:13:48;20.20;71.00
75615;DHT22;64199;48.578;-4.520;2023-10-19T04:16:18;20.20;71.00
75615;DHT22;64199;48.578;-4.520;2023-10-19T04:18:44;20.30;71.20
75615;DHT22;64199;48.578;-4.520;2023-10-19T04:21:10;20.30;71.10
75615;DHT22;64199;48.578;-4.520;2023-10-19T04:23:35;20.30;71.20
75615;DHT22;64199;48.578;-4.520;2023-10-19T04:26:02;20.30;71.20
75615;DHT22;64199;48.578;-4.520;2023-10-19T04:28:36;20.30;71.20
75615;DHT22;64199;48.578;-4.520;2023-10-19T04:31:15;20.30;71.30
75615;DHT22;64199;48.578;-4.520;2023-10-19T04:33:41;20.20;71.20
75615;DHT22;64199;48.578;-4.520;2023-10-19T04:36:13;20.30;71.40
75615;DHT22;64199;48.578;-4.520;2023-10-19T04:38:39;20.20;71.30
75615;DHT22;64199;48.578;-4.520;2023-10-19T04:41:08;20.20;71.30
75615;DHT22;64199;48.578;-4.520;2023-10-19T04:43:35;20.20;71.30
75615;DHT22;64199;48.578;-4.520;2023-10-19T04:46:08;20.20;71.30
75615;DHT22;64199;48.578;-4.520;2023-10-19T04:48:37;20.20;71.30
75615;DHT22;64199;48.578;-4.520;2023-10-19T04:51:05;20.20;71.40
75615;DHT22;64199;48.578;-4.520;2023-10-19T04:53:31;20.20;71.30
75615;DHT22;64199;48.578;-4.520;2023-10-19T04:55:57;20.20;72.10
75615;DHT22;64199;48.578;-4.520;2023-10-19T04:58:26;20.20;71.30
75615;DHT22;64199;48.578;-4.520;2023-10-19T05:00:52;20.20;71.30
75615;DHT22;64199;48.578;-4.520;2023-10-19T05:03:18;20.20;71.30
75615;DHT22;64199;48.578;-4.520;2023-10-19T05:05:44;20.20;71.40
75615;DHT22;64199;48.578;-4.520;2023-10-19T05:08:10;20.20;71.30
75615;DHT22;64199;48.578;-4.520;2023-10-19T05:10:36;20.20;71.40
75615;DHT22;64199;48.578;-4.520;2023-10-19T05:13:02;20.20;71.30
75615;DHT22;64199;48.578;-4.520;2023-10-19T05:15:29;20.20;71.30
75615;DHT22;64199;48.578;-4.520;2023-10-19T05:17:54;20.20;71.30
75615;DHT22;64199;48.578;-4.520;2023-10-19T05:20:20;20.20;71.30
75615;DHT22;64199;48.578;-4.520;2023-10-19T05:22:46;20.20;71.30
75615;DHT22;64199;48.578;-4.520;2023-10-19T05:25:12;20.20;71.30
75615;DHT22;64199;48.578;-4.520;2023-10-19T05:27:38;20.20;71.30
75615;DHT22;64199;48.578;-4.520;2023-10-19T05:30:04;20.20;71.30
75615;DHT22;64199;48.578;-4.520;2023-10-19T05:32:30;20.10;71.30
75615;DHT22;64199;48.578;-4.520;2023-10-19T05:34:56;20.20;71.30
75615;DHT22;64199;48.578;-4.520;2023-10-19T05:37:22;20.10;71.20
75615;DHT22;64199;48.578;-4.520;2023-10-19T05:39:48;20.20;71.40
75615;DHT22;64199;48.578;-4.520;2023-10-19T05:42:17;20.20;71.40
75615;DHT22;64199;48.578;-4.520;2023-10-19T05:44:43;20.10;71.30
75615;DHT22;64199;48.578;-4.520;2023-10-19T05:47:08;20.20;71.40
75615;DHT22;64199;48.578;-4.520;2023-10-19T05:49:34;20.20;71.40
75615;DHT22;64199;48.578;-4.520;2023-10-19T05:52:00;20.10;71.30
75615;DHT22;64199;48.578;-4.520;2023-10-19T05:54:26;20.10;71.30
75615;DHT22;64199;48.578;-4.520;2023-10-19T05:56:52;20.10;71.30
75615;DHT22;64199;48.578;-4.520;2023-10-19T05:59:18;20.10;71.20
75615;DHT22;64199;48.578;-4.520;2023-10-19T06:01:43;20.10;71.20
75615;DHT22;64199;48.578;-4.520;2023-10-19T06:04:12;20.10;71.20
75615;DHT22;64199;48.578;-4.520;2023-10-19T06:06:38;20.10;71.20
75615;DHT22;64199;48.578;-4.520;2023-10-19T06:09:07;20.10;71.30
75615;DHT22;64199;48.578;-4.520;2023-10-19T06:11:34;20.10;71.30
75615;DHT22;64199;48.578;-4.520;2023-10-19T06:14:05;20.10;71.30
75615;DHT22;64199;48.578;-4.520;2023-10-19T06:16:35;20.10;71.30
75615;DHT22;64199;48.578;-4.520;2023-10-19T06:19:00;20.10;71.30
75615;DHT22;64199;48.578;-4.520;2023-10-19T06:21:26;20.10;71.30
75615;DHT22;64199;48.578;-4.520;2023-10-19T06:23:52;20.10;71.30
75615;DHT22;64199;48.578;-4.520;2023-10-19T06:26:20;20.10;71.30
75615;DHT22;64199;48.578;-4.520;2023-10-19T06:28:45;20.10;71.30
75615;DHT22;64199;48.578;-4.520;2023-10-19T06:31:11;20.10;71.40
75615;DHT22;64199;48.578;-4.520;2023-10-19T06:33:37;20.10;71.40
75615;DHT22;64199;48.578;-4.520;2023-10-19T06:36:06;20.10;71.40
75615;DHT22;64199;48.578;-4.520;2023-10-19T06:38:32;20.10;71.40
75615;DHT22;64199;48.578;-4.520;2023-10-19T06:40:58;20.10;71.40
75615;DHT22;64199;48.578;-4.520;2023-10-19T06:43:24;20.10;71.40
75615;DHT22;64199;48.578;-4.520;2023-10-19T06:45:54;20.10;71.50
75615;DHT22;64199;48.578;-4.520;2023-10-19T06:48:20;20.10;71.40
75615;DHT22;64199;48.578;-4.520;2023-10-19T06:50:46;20.10;71.40
75615;DHT22;64199;48.578;-4.520;2023-10-19T06:53:12;20.10;71.40
75615;DHT22;64199;48.578;-4.520;2023-10-19T06:55:37;20.10;71.50
75615;DHT22;64199;48.578;-4.520;2023-10-19T06:58:03;20.10;71.50
75615;DHT22;64199;48.578;-4.520;2023-10-19T07:00:30;20.10;71.50
75615;DHT22;64199;48.578;-4.520;2023-10-19T07:02:56;20.10;71.50
75615;DHT22;64199;48.578;-4.520;2023-10-19T07:05:22;20.10;71.50
75615;DHT22;64199;48.578;-4.520;2023-10-19T07:07:52;20.10;71.50
75615;DHT22;64199;48.578;-4.520;2023-10-19T07:10:20;20.10;71.50
75615;DHT22;64199;48.578;-4.520;2023-10-19T07:12:46;20.10;71.50
75615;DHT22;64199;48.578;-4.520;2023-10-19T07:15:12;20.10;71.50
75615;DHT22;64199;48.578;-4.520;2023-10-19T07:17:40;20.10;71.50
75615;DHT22;64199;48.578;-4.520;2023-10-19T07:20:07;20.10;71.50
75615;DHT22;64199;48.578;-4.520;2023-10-19T07:22:34;20.10;71.50
75615;DHT22;64199;48.578;-4.520;2023-10-19T07:25:04;20.10;71.50
75615;DHT22;64199;48.578;-4.520;2023-10-19T07:27:31;20.10;71.50
75615;DHT22;64199;48.578;-4.520;2023-10-19T07:29:57;20.10;71.50
75615;DHT22;64199;48.578;-4.520;2023-10-19T07:32:24;20.10;71.50
75615;DHT22;64199;48.578;-4.520;2023-10-19T07:34:50;20.10;71.50
75615;DHT22;64199;48.578;-4.520;2023-10-19T07:37:15;20.10;71.60
75615;DHT22;64199;48.578;-4.520;2023-10-19T07:39:45;20.10;71.60
75615;DHT22;64199;48.578;-4.520;2023-10-19T07:42:11;20.10;71.50
75615;DHT22;64199;48.578;-4.520;2023-10-19T07:44:37;20.10;71.50
75615;DHT22;64199;48.578;-4.520;2023-10-19T07:47:02;20.10;71.50
75615;DHT22;64199;48.578;-4.520;2023-10-19T07:49:28;20.10;71.50
75615;DHT22;64199;48.578;-4.520;2023-10-19T07:51:54;20.10;71.60
75615;DHT22;64199;48.578;-4.520;2023-10-19T07:54:20;20.10;71.60
75615;DHT22;64199;48.578;-4.520;2023-10-19T07:56:46;20.10;71.50
75615;DHT22;64199;48.578;-4.520;2023-10-19T07:59:12;20.10;71.50
75615;DHT22;64199;48.578;-4.520;2023-10-19T08:01:39;20.10;71.50
75615;DHT22;64199;48.578;-4.520;2023-10-19T08:04:04;20.00;71.50
75615;DHT22;64199;48.578;-4.520;2023-10-19T08:06:31;20.10;71.60
75615;DHT22;64199;48.578;-4.520;2023-10-19T08:08:57;20.10;71.60
75615;DHT22;64199;48.578;-4.520;2023-10-19T08:11:23;20.00;71.50
75615;DHT22;64199;48.578;-4.520;2023-10-19T08:13:49;20.00;71.50
75615;DHT22;64199;48.578;-4.520;2023-10-19T08:16:15;20.00;71.50
75615;DHT22;64199;48.578;-4.520;2023-10-19T08:18:45;20.10;71.60
75615;DHT22;64199;48.578;-4.520;2023-10-19T08:21:11;20.10;71.50
75615;DHT22;64199;48.578;-4.520;2023-10-19T08:23:37;20.00;71.40
75615;DHT22;64199;48.578;-4.520;2023-10-19T08:26:03;20.10;71.50
75615;DHT22;64199;48.578;-4.520;2023-10-19T08:28:31;20.00;71.40
75615;DHT22;64199;48.578;-4.520;2023-10-19T08:30:58;20.00;71.50
75615;DHT22;64199;48.578;-4.520;2023-10-19T08:33:26;20.00;71.50
75615;DHT22;64199;48.578;-4.520;2023-10-19T08:35:52;20.00;71.50
75615;DHT22;64199;48.578;-4.520;2023-10-19T08:38:19;20.00;71.40
75615;DHT22;64199;48.578;-4.520;2023-10-19T08:40:45;20.00;71.40
75615;DHT22;64199;48.578;-4.520;2023-10-19T08:43:11;20.00;71.40
75615;DHT22;64199;48.578;-4.520;2023-10-19T08:45:38;20.00;71.40
75615;DHT22;64199;48.578;-4.520;2023-10-19T08:48:05;20.00;71.50
75615;DHT22;64199;48.578;-4.520;2023-10-19T08:50:31;20.00;71.50
75615;DHT22;64199;48.578;-4.520;2023-10-19T08:52:58;20.10;71.50
75615;DHT22;64199;48.578;-4.520;2023-10-19T08:55:24;20.00;71.40
75615;DHT22;64199;48.578;-4.520;2023-10-19T08:57:50;20.00;71.50
75615;DHT22;64199;48.578;-4.520;2023-10-19T09:00:16;20.00;71.50
75615;DHT22;64199;48.578;-4.520;2023-10-19T09:02:44;20.00;71.50
75615;DHT22;64199;48.578;-4.520;2023-10-19T09:05:09;20.00;71.50
75615;DHT22;64199;48.578;-4.520;2023-10-19T09:08:03;20.00;71.50
75615;DHT22;64199;48.578;-4.520;2023-10-19T09:10:31;20.00;71.50
75615;DHT22;64199;48.578;-4.520;2023-10-19T09:13:04;20.00;71.40
75615;DHT22;64199;48.578;-4.520;2023-10-19T09:15:30;20.00;71.40
75615;DHT22;64199;48.578;-4.520;2023-10-19T09:20:40;20.00;71.50
75615;DHT22;64199;48.578;-4.520;2023-10-19T09:23:07;20.10;71.50
75615;DHT22;64199;48.578;-4.520;2023-10-19T09:25:33;20.00;71.40
75615;DHT22;64199;48.578;-4.520;2023-10-19T09:28:00;20.10;72.30
75615;DHT22;64199;48.578;-4.520;2023-10-19T09:30:28;20.10;71.50
75615;DHT22;64199;48.578;-4.520;2023-10-19T09:32:56;20.00;71.50
75615;DHT22;64199;48.578;-4.520;2023-10-19T09:35:23;20.00;71.50
75615;DHT22;64199;48.578;-4.520;2023-10-19T09:37:53;20.00;71.50
75615;DHT22;64199;48.578;-4.520;2023-10-19T09:40:19;20.00;71.50
75615;DHT22;64199;48.578;-4.520;2023-10-19T09:42:45;20.10;71.50
75615;DHT22;64199;48.578;-4.520;2023-10-19T09:45:14;20.10;71.60
75615;DHT22;64199;48.578;-4.520;2023-10-19T09:47:41;20.00;71.50
75615;DHT22;64199;48.578;-4.520;2023-10-19T09:50:12;20.10;71.60
75615;DHT22;64199;48.578;-4.520;2023-10-19T09:52:39;20.00;71.50
75615;DHT22;64199;48.578;-4.520;2023-10-19T09:55:10;20.10;71.60
75615;DHT22;64199;48.578;-4.520;2023-10-19T10:00:23;20.10;71.60
75615;DHT22;64199;48.578;-4.520;2023-10-19T10:02:49;20.10;71.60
75615;DHT22;64199;48.578;-4.520;2023-10-19T10:10:46;20.10;72.40
75615;DHT22;64199;48.578;-4.520;2023-10-19T10:15:54;20.10;71.60
75615;DHT22;64199;48.578;-4.520;2023-10-19T10:18:26;20.10;71.60
75615;DHT22;64199;48.578;-4.520;2023-10-19T10:23:39;20.10;71.60
75615;DHT22;64199;48.578;-4.520;2023-10-19T10:26:05;20.10;71.60
75615;DHT22;64199;48.578;-4.520;2023-10-19T10:28:33;20.10;71.60
75615;DHT22;64199;48.578;-4.520;2023-10-19T10:36:05;20.10;71.70
75615;DHT22;64199;48.578;-4.520;2023-10-19T10:38:34;20.10;71.70
75615;DHT22;64199;48.578;-4.520;2023-10-19T10:41:03;20.10;71.70
75615;DHT22;64199;48.578;-4.520;2023-10-19T10:43:29;20.20;72.00
75615;DHT22;64199;48.578;-4.520;2023-10-19T10:46:08;20.20;71.70
75615;DHT22;64199;48.578;-4.520;2023-10-19T10:48:34;20.20;71.80
75615;DHT22;64199;48.578;-4.520;2023-10-19T10:51:01;20.20;71.70
75615;DHT22;64199;48.578;-4.520;2023-10-19T10:53:27;20.20;71.80
75615;DHT22;64199;48.578;-4.520;2023-10-19T10:55:53;20.20;71.80
75615;DHT22;64199;48.578;-4.520;2023-10-19T10:58:19;20.20;71.80
75615;DHT22;64199;48.578;-4.520;2023-10-19T11:00:46;20.20;71.80
75615;DHT22;64199;48.578;-4.520;2023-10-19T11:03:13;20.20;71.80
75615;DHT22;64199;48.578;-4.520;2023-10-19T11:05:41;20.20;72.60
75615;DHT22;64199;48.578;-4.520;2023-10-19T11:10:38;20.20;71.80
75615;DHT22;64199;48.578;-4.520;2023-10-19T11:13:06;20.20;71.80
75615;DHT22;64199;48.578;-4.520;2023-10-19T11:15:32;20.20;71.90
75615;DHT22;64199;48.578;-4.520;2023-10-19T11:17:58;20.20;71.80
75615;DHT22;64199;48.578;-4.520;2023-10-19T11:20:24;20.20;71.80
75615;DHT22;64199;48.578;-4.520;2023-10-19T11:22:51;20.20;72.60
75615;DHT22;64199;48.578;-4.520;2023-10-19T11:25:17;20.30;71.90
75615;DHT22;64199;48.578;-4.520;2023-10-19T11:27:43;20.30;71.90
75615;DHT22;64199;48.578;-4.520;2023-10-19T11:30:09;20.30;71.90
75615;DHT22;64199;48.578;-4.520;2023-10-19T11:32:37;20.30;71.90
75615;DHT22;64199;48.578;-4.520;2023-10-19T11:35:06;20.30;71.90
75615;DHT22;64199;48.578;-4.520;2023-10-19T11:37:50;20.30;71.80
75615;DHT22;64199;48.578;-4.520;2023-10-19T11:40:20;20.30;71.80
75615;DHT22;64199;48.578;-4.520;2023-10-19T11:42:45;20.30;71.80
75615;DHT22;64199;48.578;-4.520;2023-10-19T11:45:12;20.30;71.80
75615;DHT22;64199;48.578;-4.520;2023-10-19T11:47:38;20.40;71.80
75615;DHT22;64199;48.578;-4.520;2023-10-19T11:50:04;20.40;71.80
75615;DHT22;64199;48.578;-4.520;2023-10-19T11:52:30;20.40;71.90
75615;DHT22;64199;48.578;-4.520;2023-10-19T11:54:56;20.40;71.90
75615;DHT22;64199;48.578;-4.520;2023-10-19T11:57:21;20.40;71.90
75615;DHT22;64199;48.578;-4.520;2023-10-19T11:59:47;20.40;71.90
75615;DHT22;64199;48.578;-4.520;2023-10-19T12:02:18;20.40;71.90
75615;DHT22;64199;48.578;-4.520;2023-10-19T12:04:44;20.40;71.90
75615;DHT22;64199;48.578;-4.520;2023-10-19T12:07:10;20.40;72.00
75615;DHT22;64199;48.578;-4.520;2023-10-19T12:09:37;20.40;71.90
75615;DHT22;64199;48.578;-4.520;2023-10-19T12:12:02;20.50;72.00
75615;DHT22;64199;48.578;-4.520;2023-10-19T12:14:31;20.50;72.00
75615;DHT22;64199;48.578;-4.520;2023-10-19T12:17:00;20.50;72.00
75615;DHT22;64199;48.578;-4.520;2023-10-19T12:19:27;20.50;72.10
75615;DHT22;64199;48.578;-4.520;2023-10-19T12:21:55;20.50;72.00
75615;DHT22;64199;48.578;-4.520;2023-10-19T12:24:20;20.50;72.00
75615;DHT22;64199;48.578;-4.520;2023-10-19T12:26:46;20.50;72.00
75615;DHT22;64199;48.578;-4.520;2023-10-19T12:29:12;20.50;72.00
75615;DHT22;64199;48.578;-4.520;2023-10-19T12:31:41;20.50;72.00
75615;DHT22;64199;48.578;-4.520;2023-10-19T12:34:07;20.50;72.00
75615;DHT22;64199;48.578;-4.520;2023-10-19T12:36:36;20.50;72.00
75615;DHT22;64199;48.578;-4.520;2023-10-19T12:39:02;20.60;72.10
75615;DHT22;64199;48.578;-4.520;2023-10-19T12:41:30;20.60;72.10
75615;DHT22;64199;48.578;-4.520;2023-10-19T12:43:57;20.60;72.10
75615;DHT22;64199;48.578;-4.520;2023-10-19T12:46:23;20.60;72.10
75615;DHT22;64199;48.578;-4.520;2023-10-19T12:48:55;20.60;72.20
75615;DHT22;64199;48.578;-4.520;2023-10-19T12:51:21;20.60;72.10
75615;DHT22;64199;48.578;-4.520;2023-10-19T12:53:50;20.60;72.20
75615;DHT22;64199;48.578;-4.520;2023-10-19T12:56:20;20.60;72.20
75615;DHT22;64199;48.578;-4.520;2023-10-19T12:58:46;20.60;72.20
75615;DHT22;64199;48.578;-4.520;2023-10-19T13:01:14;20.70;72.30
75615;DHT22;64199;48.578;-4.520;2023-10-19T13:03:45;20.70;72.20
75615;DHT22;64199;48.578;-4.520;2023-10-19T13:06:13;20.70;72.20
75615;DHT22;64199;48.578;-4.520;2023-10-19T13:08:41;20.70;72.30
75615;DHT22;64199;48.578;-4.520;2023-10-19T13:11:08;20.70;72.20
75615;DHT22;64199;48.578;-4.520;2023-10-19T13:13:33;20.70;72.20
75615;DHT22;64199;48.578;-4.520;2023-10-19T13:16:01;20.70;72.20
75615;DHT22;64199;48.578;-4.520;2023-10-19T13:18:31;20.70;72.20
75615;DHT22;64199;48.578;-4.520;2023-10-19T13:20:59;20.80;72.30
75615;DHT22;64199;48.578;-4.520;2023-10-19T13:23:30;20.80;72.30
75615;DHT22;64199;48.578;-4.520;2023-10-19T13:25:58;20.80;72.30
75615;DHT22;64199;48.578;-4.520;2023-10-19T13:28:34;20.80;72.30
75615;DHT22;64199;48.578;-4.520;2023-10-19T13:31:00;20.80;72.30
75615;DHT22;64199;48.578;-4.520;2023-10-19T13:33:26;20.80;72.30
75615;DHT22;64199;48.578;-4.520;2023-10-19T13:35:51;20.80;72.20
75615;DHT22;64199;48.578;-4.520;2023-10-19T13:38:18;20.80;72.20
75615;DHT22;64199;48.578;-4.520;2023-10-19T13:40:47;20.80;72.20
75615;DHT22;64199;48.578;-4.520;2023-10-19T13:43:14;20.80;72.20
75615;DHT22;64199;48.578;-4.520;2023-10-19T13:45:40;20.80;72.10
75615;DHT22;64199;48.578;-4.520;2023-10-19T13:48:06;20.80;72.00
75615;DHT22;64199;48.578;-4.520;2023-10-19T13:50:33;20.80;72.10
75615;DHT22;64199;48.578;-4.520;2023-10-19T13:52:59;20.80;72.00
75615;DHT22;64199;48.578;-4.520;2023-10-19T13:55:30;20.80;72.00
75615;DHT22;64199;48.578;-4.520;2023-10-19T13:57:56;20.90;72.00
75615;DHT22;64199;48.578;-4.520;2023-10-19T14:00:22;20.80;71.90
75615;DHT22;64199;48.578;-4.520;2023-10-19T14:03:00;20.80;71.90
75615;DHT22;64199;48.578;-4.520;2023-10-19T14:05:26;20.80;71.80
75615;DHT22;64199;48.578;-4.520;2023-10-19T14:07:52;20.80;71.80
75615;DHT22;64199;48.578;-4.520;2023-10-19T14:10:19;20.90;71.90
75615;DHT22;64199;48.578;-4.520;2023-10-19T14:12:48;20.90;72.00
75615;DHT22;64199;48.578;-4.520;2023-10-19T14:15:20;20.90;72.00
75615;DHT22;64199;48.578;-4.520;2023-10-19T14:17:46;20.80;72.70
75615;DHT22;64199;48.578;-4.520;2023-10-19T14:20:13;20.90;71.90
75615;DHT22;64199;48.578;-4.520;2023-10-19T14:22:45;20.90;71.90
75615;DHT22;64199;48.578;-4.520;2023-10-19T14:25:12;20.90;71.90
75615;DHT22;64199;48.578;-4.520;2023-10-19T14:27:41;20.90;71.80
75615;DHT22;64199;48.578;-4.520;2023-10-19T14:30:11;21.00;72.00
75615;DHT22;64199;48.578;-4.520;2023-10-19T14:32:44;21.00;72.00
75615;DHT22;64199;48.578;-4.520;2023-10-19T14:35:11;21.00;72.00
75615;DHT22;64199;48.578;-4.520;2023-10-19T14:37:40;21.00;71.90
75615;DHT22;64199;48.578;-4.520;2023-10-19T14:40:07;21.00;71.90
75615;DHT22;64199;48.578;-4.520;2023-10-19T14:42:43;21.00;71.90
75615;DHT22;64199;48.578;-4.520;2023-10-19T14:45:10;21.00;72.00
75615;DHT22;64199;48.578;-4.520;2023-10-19T14:47:38;21.00;72.00
75615;DHT22;64199;48.578;-4.520;2023-10-19T14:50:10;21.00;71.90
75615;DHT22;64199;48.578;-4.520;2023-10-19T14:52:43;21.00;71.80
75615;DHT22;64199;48.578;-4.520;2023-10-19T14:55:09;21.00;71.80
75615;DHT22;64199;48.578;-4.520;2023-10-19T14:57:36;21.00;71.70
75615;DHT22;64199;48.578;-4.520;2023-10-19T15:00:05;21.00;71.70
75615;DHT22;64199;48.578;-4.520;2023-10-19T15:02:44;21.00;71.60
75615;DHT22;64199;48.578;-4.520;2023-10-19T15:05:13;21.00;71.50
75615;DHT22;64199;48.578;-4.520;2023-10-19T15:07:45;21.00;71.40
75615;DHT22;64199;48.578;-4.520;2023-10-19T15:10:11;21.00;71.40
75615;DHT22;64199;48.578;-4.520;2023-10-19T15:12:40;21.00;71.40
75615;DHT22;64199;48.578;-4.520;2023-10-19T15:15:09;21.00;71.30
75615;DHT22;64199;48.578;-4.520;2023-10-19T15:17:38;21.00;71.20
75615;DHT22;64199;48.578;-4.520;2023-10-19T15:20:05;21.00;72.00
75615;DHT22;64199;48.578;-4.520;2023-10-19T15:22:32;21.00;71.20
75615;DHT22;64199;48.578;-4.520;2023-10-19T15:24:58;21.00;71.10
75615;DHT22;64199;48.578;-4.520;2023-10-19T15:27:25;21.00;71.10
75615;DHT22;64199;48.578;-4.520;2023-10-19T15:29:56;21.00;71.10
75615;DHT22;64199;48.578;-4.520;2023-10-19T15:32:23;21.00;71.00
75615;DHT22;64199;48.578;-4.520;2023-10-19T15:34:50;21.00;71.00
75615;DHT22;64199;48.578;-4.520;2023-10-19T15:37:18;21.00;71.00
75615;DHT22;64199;48.578;-4.520;2023-10-19T15:39:44;21.00;70.90
75615;DHT22;64199;48.578;-4.520;2023-10-19T15:42:10;21.00;70.90
75615;DHT22;64199;48.578;-4.520;2023-10-19T15:44:37;21.00;70.90